createdAt,value
2023-05-06T00:01:57.875Z,4.70
2023-05-06T00:04:24.583Z,5.78
2023-05-06T00:06:51.412Z,5.30
2023-05-06T00:09:18.061Z,6.43
2023-05-06T00:11:45.832Z,8.00
2023-05-06T00:14:12.519Z,6.50
2023-05-06T00:16:39.196Z,6.18
2023-05-06T00:19:05.829Z,4.75
2023-05-06T00:21:32.461Z,7.72
2023-05-06T00:23:59.086Z,5.97
2023-05-06T00:26:25.669Z,6.30
2023-05-06T00:28:53.257Z,7.53
2023-05-06T00:31:19.923Z,11.05
2023-05-06T00:33:46.655Z,6.43
2023-05-06T00:36:13.267Z,7.20
2023-05-06T00:38:40.090Z,6.75
2023-05-06T00:41:06.976Z,6.22
2023-05-06T00:43:33.566Z,8.48
2023-05-06T00:46:00.728Z,5.80
2023-05-06T00:48:27.594Z,8.15
2023-05-06T00:50:54.307Z,6.95
2023-05-06T00:53:23.711Z,7.22
2023-05-06T00:55:51.282Z,7.20
2023-05-06T00:58:20.149Z,8.93
2023-05-06T01:00:46.840Z,8.00
2023-05-06T01:03:13.688Z,5.95
2023-05-06T01:05:51.086Z,6.45
2023-05-06T01:08:27.802Z,8.23
2023-05-06T01:11:00.287Z,5.95
2023-05-06T01:13:56.390Z,5.25
2023-05-06T01:16:25.410Z,9.00
2023-05-06T01:18:54.774Z,6.47
2023-05-06T01:21:22.742Z,7.40
2023-05-06T01:23:58.726Z,7.40
2023-05-06T01:26:26.327Z,7.85
2023-05-06T01:28:53.888Z,7.05
2023-05-06T01:31:26.329Z,7.60
2023-05-06T01:34:05.113Z,8.05
2023-05-06T01:36:57.645Z,7.43
2023-05-06T01:39:26.516Z,6.57
2023-05-06T01:41:57.334Z,8.95
2023-05-06T01:44:27.611Z,9.20
2023-05-06T01:46:55.190Z,7.38
2023-05-06T01:49:25.126Z,6.70
2023-05-06T01:51:53.082Z,8.13
2023-05-06T01:54:19.721Z,8.93
2023-05-06T01:56:46.675Z,8.27
2023-05-06T01:59:14.731Z,6.38
2023-05-06T02:01:41.367Z,6.75
2023-05-06T02:04:08.055Z,8.40
2023-05-06T02:06:34.682Z,9.73
2023-05-06T02:09:01.409Z,9.10
2023-05-06T02:11:29.747Z,8.02
2023-05-06T02:14:02.246Z,9.77
2023-05-06T02:16:31.490Z,7.78
2023-05-06T02:18:58.284Z,8.77
2023-05-06T02:21:24.893Z,7.38
2023-05-06T02:23:51.506Z,7.88
2023-05-06T02:26:18.133Z,8.38
2023-05-06T02:28:44.755Z,8.02
2023-05-06T02:31:16.233Z,8.88
2023-05-06T02:33:45.000Z,6.43
2023-05-06T02:36:11.588Z,8.80
2023-05-06T02:38:38.141Z,6.82
2023-05-06T02:41:04.836Z,7.70
2023-05-06T02:43:31.431Z,7.72
2023-05-06T02:45:58.406Z,7.03
2023-05-06T02:48:25.703Z,7.43
2023-05-06T02:50:52.398Z,9.10
2023-05-06T02:53:19.041Z,7.78
2023-05-06T02:55:45.846Z,6.05
2023-05-06T02:58:12.428Z,8.68
2023-05-06T03:00:39.005Z,7.32
2023-05-06T03:03:05.894Z,6.82
2023-05-06T03:05:32.568Z,8.15
2023-05-06T03:07:59.187Z,11.35
2023-05-06T03:10:25.894Z,6.88
2023-05-06T03:12:52.932Z,6.38
2023-05-06T03:15:19.592Z,8.30
2023-05-06T03:17:47.530Z,9.32
2023-05-06T03:20:14.504Z,5.88
2023-05-06T03:22:46.427Z,8.02
2023-05-06T03:25:13.043Z,8.32
2023-05-06T03:27:41.251Z,11.68
2023-05-06T03:30:15.375Z,8.38
2023-05-06T03:32:42.529Z,8.25
2023-05-06T03:35:12.090Z,8.65
2023-05-06T03:37:41.773Z,8.20
2023-05-06T03:40:09.452Z,9.00
2023-05-06T03:42:36.359Z,7.90
2023-05-06T03:45:05.060Z,8.45
2023-05-06T03:47:32.960Z,9.18
2023-05-06T03:50:00.962Z,8.20
2023-05-06T03:52:28.322Z,9.45
2023-05-06T03:54:55.277Z,15.95
2023-05-06T03:57:22.241Z,7.75
2023-05-06T03:59:49.149Z,9.38
2023-05-06T04:02:16.378Z,8.82
2023-05-06T04:04:43.250Z,7.28
2023-05-06T04:07:10.094Z,8.38
2023-05-06T04:09:36.720Z,7.78
2023-05-06T04:12:07.128Z,8.60
2023-05-06T04:14:34.905Z,8.18
2023-05-06T04:17:02.212Z,7.63
2023-05-06T04:19:28.848Z,7.80
2023-05-06T04:21:56.621Z,8.38
2023-05-06T04:24:23.279Z,7.47
2023-05-06T04:26:50.072Z,7.80
2023-05-06T04:29:17.227Z,7.93
2023-05-06T04:31:54.680Z,7.93
2023-05-06T04:34:22.639Z,8.93
2023-05-06T04:36:49.515Z,8.65
2023-05-06T04:39:34.576Z,8.38
2023-05-06T04:42:02.252Z,8.85
2023-05-06T04:44:36.480Z,9.73
2023-05-06T04:49:32.926Z,9.20
2023-05-06T04:52:01.015Z,7.35
2023-05-06T04:54:27.785Z,8.80
2023-05-06T04:56:54.446Z,6.88
2023-05-06T04:59:21.127Z,6.93
2023-05-06T05:01:48.322Z,7.18
2023-05-06T05:04:15.980Z,9.05
2023-05-06T05:06:42.832Z,7.03
2023-05-06T05:09:10.645Z,7.45
2023-05-06T05:11:39.852Z,7.30
2023-05-06T05:14:06.553Z,7.53
2023-05-06T05:16:33.471Z,7.57
2023-05-06T05:19:03.532Z,9.07
2023-05-06T05:21:32.844Z,9.70
2023-05-06T05:24:00.303Z,7.50
2023-05-06T05:26:27.102Z,8.02
2023-05-06T05:28:55.632Z,8.15
2023-05-06T05:31:23.108Z,6.93
2023-05-06T05:33:50.183Z,9.00
2023-05-06T05:36:19.975Z,8.93
2023-05-06T05:38:50.005Z,8.30
2023-05-06T05:41:17.923Z,10.55
2023-05-06T05:43:45.574Z,9.50
2023-05-06T05:46:12.285Z,9.25
2023-05-06T05:48:40.006Z,11.90
2023-05-06T05:51:07.357Z,10.55
2023-05-06T05:53:34.139Z,11.77
2023-05-06T05:56:00.750Z,10.55
2023-05-06T05:58:28.562Z,11.95
2023-05-06T06:00:57.827Z,10.88
2023-05-06T06:03:25.023Z,13.77
2023-05-06T06:05:53.143Z,19.05
2023-05-06T06:08:20.008Z,15.25
2023-05-06T06:10:48.568Z,17.63
2023-05-06T06:13:20.474Z,14.43
2023-05-06T06:15:47.365Z,19.30
2023-05-06T06:18:14.498Z,21.13
2023-05-06T06:20:42.188Z,17.27
2023-05-06T06:23:09.246Z,17.70
2023-05-06T06:25:36.218Z,17.83
2023-05-06T06:28:02.905Z,16.95
2023-05-06T06:30:29.615Z,16.63
2023-05-06T06:32:56.856Z,20.00
2023-05-06T06:35:23.810Z,16.40
2023-05-06T06:37:50.726Z,16.30
2023-05-06T06:40:17.419Z,17.75
2023-05-06T06:42:44.078Z,18.23
2023-05-06T06:45:29.383Z,15.82
2023-05-06T06:47:56.096Z,15.38
2023-05-06T06:50:22.708Z,14.70
2023-05-06T06:52:49.279Z,13.23
2023-05-06T06:55:15.905Z,13.88
2023-05-06T06:57:42.523Z,13.73
2023-05-06T07:00:10.203Z,12.48
2023-05-06T07:02:36.862Z,11.93
2023-05-06T07:05:04.501Z,13.25
2023-05-06T07:07:31.244Z,14.45
2023-05-06T07:09:58.272Z,10.70
2023-05-06T07:12:26.708Z,12.32
2023-05-06T07:14:53.356Z,13.98
2023-05-06T07:17:20.052Z,12.68
2023-05-06T07:19:46.783Z,12.93
2023-05-06T07:22:13.370Z,14.68
2023-05-06T07:24:39.990Z,14.88
2023-05-06T07:27:06.604Z,12.60
2023-05-06T07:29:34.850Z,13.65
2023-05-06T07:32:01.704Z,17.02
2023-05-06T07:34:28.346Z,13.82
2023-05-06T07:36:54.932Z,16.20
2023-05-06T07:39:21.524Z,15.15
2023-05-06T07:41:48.132Z,17.38
2023-05-06T07:44:14.716Z,16.77
2023-05-06T07:46:41.549Z,16.52
2023-05-06T07:49:08.223Z,14.55
2023-05-06T07:51:34.893Z,17.75
2023-05-06T07:54:01.906Z,13.43
2023-05-06T07:56:28.636Z,13.52
2023-05-06T07:58:55.312Z,15.27
2023-05-06T08:01:22.104Z,12.60
2023-05-06T08:03:48.732Z,15.20
2023-05-06T08:06:15.349Z,13.98
2023-05-06T08:08:41.986Z,15.73
2023-05-06T08:11:08.598Z,14.40
2023-05-06T08:13:35.320Z,17.75
2023-05-06T08:16:02.467Z,14.65
2023-05-06T08:18:29.972Z,14.93
2023-05-06T08:20:56.765Z,13.55
2023-05-06T08:23:23.578Z,15.13
2023-05-06T08:25:50.220Z,13.70
2023-05-06T08:28:16.854Z,13.32
2023-05-06T08:30:44.742Z,12.10
2023-05-06T08:33:11.416Z,14.27
2023-05-06T08:35:38.112Z,15.20
2023-05-06T08:38:04.824Z,13.55
2023-05-06T08:40:33.582Z,14.43
2023-05-06T08:43:03.395Z,13.25
2023-05-06T08:45:30.327Z,15.97
2023-05-06T08:47:57.318Z,12.40
2023-05-06T08:50:25.481Z,16.00
2023-05-06T08:52:52.288Z,14.13
2023-05-06T08:55:19.714Z,13.80
2023-05-06T08:57:47.950Z,14.93
2023-05-06T09:00:15.087Z,14.90
2023-05-06T09:02:43.313Z,15.35
2023-05-06T09:05:12.174Z,13.88
2023-05-06T09:07:39.126Z,14.75
2023-05-06T09:10:07.829Z,12.82
2023-05-06T09:12:37.876Z,15.02
2023-05-06T09:15:05.247Z,15.35
2023-05-06T09:17:32.661Z,15.10
2023-05-06T09:20:00.961Z,17.20
2023-05-06T09:22:29.579Z,16.65
2023-05-06T09:25:00.046Z,16.50
2023-05-06T09:27:32.907Z,16.90
2023-05-06T09:30:07.328Z,14.73
2023-05-06T09:32:36.813Z,17.52
2023-05-06T09:35:06.990Z,16.30
2023-05-06T09:37:33.678Z,13.68
2023-05-06T09:40:03.465Z,16.50
2023-05-06T09:42:31.044Z,17.23
2023-05-06T09:45:02.134Z,14.93
2023-05-06T09:47:35.170Z,15.57
2023-05-06T09:50:03.692Z,15.25
2023-05-06T09:52:31.339Z,14.50
2023-05-06T09:54:58.544Z,15.82
2023-05-06T09:57:26.345Z,17.23
2023-05-06T09:59:54.212Z,15.52
2023-05-06T10:02:22.972Z,18.95
2023-05-06T10:04:50.361Z,14.07
2023-05-06T10:07:22.543Z,15.45
2023-05-06T10:09:50.763Z,13.60
2023-05-06T10:12:18.285Z,14.45
2023-05-06T10:14:45.074Z,14.38
2023-05-06T10:17:13.204Z,13.10
2023-05-06T10:19:44.193Z,13.60
2023-05-06T10:22:46.305Z,14.35
2023-05-06T10:25:38.892Z,12.30
2023-05-06T10:28:08.492Z,13.85
2023-05-06T10:30:40.822Z,14.48
2023-05-06T10:33:09.755Z,11.68
2023-05-06T10:35:52.912Z,13.57
2023-05-06T10:38:26.745Z,12.57
2023-05-06T10:40:54.801Z,14.43
2023-05-06T10:43:35.326Z,13.57
2023-05-06T10:48:31.393Z,10.85
2023-05-06T10:51:19.812Z,10.93
2023-05-06T10:53:57.265Z,10.95
2023-05-06T10:56:24.619Z,11.27
2023-05-06T10:58:52.155Z,12.38
2023-05-06T11:01:22.399Z,10.38
2023-05-06T11:03:50.868Z,13.13
2023-05-06T11:06:37.835Z,12.27
2023-05-06T11:09:06.294Z,9.90
2023-05-06T11:11:52.251Z,13.05
2023-05-06T11:14:36.043Z,12.45
2023-05-06T11:17:05.376Z,11.35
2023-05-06T11:19:37.633Z,12.95
2023-05-06T11:22:06.089Z,11.07
2023-05-06T11:24:38.331Z,13.15
2023-05-06T11:27:05.800Z,12.75
2023-05-06T11:29:32.490Z,15.52
2023-05-06T11:31:59.350Z,12.68
2023-05-06T11:34:29.884Z,11.40
2023-05-06T11:36:57.579Z,16.25
2023-05-06T11:39:30.152Z,14.45
2023-05-06T11:42:02.859Z,11.57
2023-05-06T11:44:32.883Z,11.07
2023-05-06T11:47:02.027Z,16.40
2023-05-06T11:49:28.919Z,10.10
2023-05-06T11:51:57.117Z,8.57
2023-05-06T11:54:26.358Z,9.73
2023-05-06T11:56:56.190Z,11.18
2023-05-06T11:59:40.589Z,13.03
2023-05-06T12:02:10.016Z,12.00
2023-05-06T12:04:38.729Z,13.95
2023-05-06T12:07:07.462Z,10.75
2023-05-06T12:09:35.095Z,14.10
2023-05-06T12:12:03.620Z,15.43
2023-05-06T12:14:30.938Z,14.27
2023-05-06T12:16:58.152Z,13.52
2023-05-06T12:19:24.962Z,12.27
2023-05-06T12:21:52.365Z,11.80
2023-05-06T12:24:28.922Z,11.40
2023-05-06T12:26:56.152Z,12.40
2023-05-06T12:29:22.758Z,12.10
2023-05-06T12:31:49.603Z,13.55
2023-05-06T12:34:18.414Z,12.52
2023-05-06T12:36:47.072Z,12.70
2023-05-06T12:39:14.128Z,13.85
2023-05-06T12:41:45.046Z,10.68
2023-05-06T12:44:36.675Z,12.90
2023-05-06T12:47:24.952Z,10.10
2023-05-06T12:49:51.718Z,11.55
2023-05-06T12:52:20.582Z,9.80
2023-05-06T12:54:47.570Z,11.20
2023-05-06T12:57:14.556Z,9.43
2023-05-06T12:59:42.371Z,10.15
2023-05-06T13:02:09.730Z,10.50
2023-05-06T13:04:36.330Z,8.93
2023-05-06T13:07:03.467Z,9.15
2023-05-06T13:09:30.320Z,7.93
2023-05-06T13:11:56.883Z,10.05
2023-05-06T13:14:23.578Z,9.40
2023-05-06T13:16:50.352Z,10.85
2023-05-06T13:21:46.739Z,11.82
2023-05-06T13:24:13.279Z,10.20
2023-05-06T13:26:40.030Z,9.93
2023-05-06T13:29:06.821Z,10.50
2023-05-06T13:31:34.718Z,11.35
2023-05-06T13:34:01.463Z,12.13
2023-05-06T13:36:28.150Z,12.60
2023-05-06T13:38:55.036Z,11.77
2023-05-06T13:41:22.499Z,11.77
2023-05-06T13:43:49.036Z,14.52
2023-05-06T13:46:15.737Z,11.05
2023-05-06T13:48:42.357Z,12.20
2023-05-06T13:51:09.040Z,12.88
2023-05-06T13:53:35.629Z,11.75
2023-05-06T13:56:02.468Z,13.32
2023-05-06T13:58:29.148Z,13.27
2023-05-06T14:00:56.848Z,13.85
2023-05-06T14:03:23.421Z,14.88
2023-05-06T14:05:50.465Z,13.50
2023-05-06T14:08:17.274Z,13.73
2023-05-06T14:10:44.210Z,15.55
2023-05-06T14:13:11.608Z,13.23
2023-05-06T14:15:38.298Z,13.90
2023-05-06T14:18:05.097Z,11.95
2023-05-06T14:20:31.869Z,13.50
2023-05-06T14:22:58.457Z,13.35
2023-05-06T14:25:27.860Z,15.07
2023-05-06T14:27:55.061Z,14.97
2023-05-06T14:30:21.966Z,16.20
2023-05-06T14:32:48.722Z,13.32
2023-05-06T14:35:16.257Z,12.77
2023-05-06T14:37:42.832Z,16.63
2023-05-06T14:40:10.357Z,13.95
2023-05-06T14:42:37.205Z,16.33
2023-05-06T14:45:04.343Z,16.20
2023-05-06T14:47:31.059Z,14.65
2023-05-06T14:49:57.790Z,12.52
2023-05-06T14:52:24.430Z,15.52
2023-05-06T14:54:51.105Z,15.63
2023-05-06T14:57:17.737Z,14.93
2023-05-06T14:59:44.282Z,15.20
2023-05-06T15:02:11.084Z,14.55
2023-05-06T15:04:37.826Z,13.43
2023-05-06T15:07:04.633Z,15.07
2023-05-06T15:09:31.472Z,15.52
2023-05-06T15:11:58.238Z,16.80
2023-05-06T15:14:24.928Z,14.70
2023-05-06T15:16:55.932Z,14.20
2023-05-06T15:19:22.735Z,17.08
2023-05-06T15:21:49.341Z,17.05
2023-05-06T15:24:16.008Z,14.48
2023-05-06T15:26:42.831Z,14.02
2023-05-06T15:29:09.562Z,13.95
2023-05-06T15:31:39.172Z,14.07
2023-05-06T15:34:09.400Z,15.13
2023-05-06T15:36:36.143Z,14.38
2023-05-06T15:39:03.225Z,14.57
2023-05-06T15:41:32.294Z,17.52
2023-05-06T15:44:00.617Z,14.55
2023-05-06T15:46:28.013Z,13.40
2023-05-06T15:49:15.629Z,14.38
2023-05-06T15:51:41.487Z,15.60
2023-05-06T15:54:08.850Z,16.90
2023-05-06T15:56:40.669Z,26.05
2023-05-06T15:59:08.433Z,16.48
2023-05-06T16:01:57.361Z,15.13
2023-05-06T16:04:22.410Z,18.83
2023-05-06T16:06:49.874Z,16.83
2023-05-06T16:09:16.578Z,17.15
2023-05-06T16:11:43.214Z,15.73
2023-05-06T16:14:09.786Z,17.88
2023-05-06T16:16:36.615Z,16.38
2023-05-06T16:19:03.359Z,13.93
2023-05-06T16:21:30.401Z,16.02
2023-05-06T16:23:57.018Z,18.90
2023-05-06T16:26:24.520Z,19.67
2023-05-06T16:28:51.172Z,21.92
2023-05-06T16:31:18.424Z,16.63
2023-05-06T16:33:45.219Z,41.95
2023-05-06T16:36:12.547Z,18.88
2023-05-06T16:38:39.074Z,25.92
2023-05-06T16:41:05.756Z,14.70
2023-05-06T16:43:32.402Z,20.42
2023-05-06T16:45:58.945Z,17.17
2023-05-06T16:48:25.764Z,13.52
2023-05-06T16:50:52.967Z,14.25
2023-05-06T16:53:19.584Z,18.60
2023-05-06T16:55:49.907Z,16.38
2023-05-06T16:58:16.618Z,16.55
2023-05-06T17:00:43.501Z,13.18
2023-05-06T17:03:10.381Z,15.98
2023-05-06T17:05:37.127Z,14.43
2023-05-06T17:08:03.974Z,13.50
2023-05-06T17:10:30.670Z,19.17
2023-05-06T17:12:58.174Z,25.95
2023-05-06T17:15:25.166Z,22.27
2023-05-06T17:17:51.958Z,14.65
2023-05-06T17:20:21.888Z,16.27
2023-05-06T17:22:49.172Z,14.40
2023-05-06T17:25:16.150Z,13.60
2023-05-06T17:27:43.053Z,15.32
2023-05-06T17:30:09.941Z,14.80
2023-05-06T17:32:37.415Z,17.95
2023-05-06T17:35:04.621Z,14.07
2023-05-06T17:37:31.509Z,14.20
2023-05-06T17:39:58.192Z,24.27
2023-05-06T17:42:26.068Z,15.70
2023-05-06T17:44:53.119Z,13.18
2023-05-06T17:47:22.734Z,15.82
2023-05-06T17:49:53.694Z,17.00
2023-05-06T17:52:20.870Z,15.80
2023-05-06T17:55:05.699Z,13.10
2023-05-06T17:57:37.338Z,14.70
2023-05-06T18:00:04.498Z,34.65
2023-05-06T18:02:38.504Z,19.48
2023-05-06T18:05:06.361Z,12.27
2023-05-06T18:07:33.020Z,12.52
2023-05-06T18:09:59.730Z,11.45
2023-05-06T18:12:26.893Z,13.52
2023-05-06T18:14:55.295Z,12.38
2023-05-06T18:17:21.948Z,12.82
2023-05-06T18:19:48.675Z,10.15
2023-05-06T18:22:15.292Z,11.48
2023-05-06T18:24:41.887Z,11.00
2023-05-06T18:27:08.493Z,10.73
2023-05-06T18:29:35.516Z,12.18
2023-05-06T18:32:02.255Z,11.38
2023-05-06T18:34:29.052Z,12.13
2023-05-06T18:36:55.866Z,11.32
2023-05-06T18:39:23.613Z,11.38
2023-05-06T18:41:50.409Z,10.25
2023-05-06T18:44:17.030Z,10.90
2023-05-06T18:46:43.568Z,10.60
2023-05-06T18:49:10.250Z,12.48
2023-05-06T18:51:37.198Z,11.68
2023-05-06T18:54:04.349Z,11.85
2023-05-06T18:56:31.713Z,12.50
2023-05-06T18:58:58.556Z,14.15
2023-05-06T19:01:25.306Z,14.35
2023-05-06T19:03:52.486Z,14.60
2023-05-06T19:06:19.111Z,13.70
2023-05-06T19:08:45.837Z,10.93
2023-05-06T19:11:16.246Z,11.80
2023-05-06T19:13:43.887Z,15.55
2023-05-06T19:16:11.249Z,15.05
2023-05-06T19:18:38.123Z,14.57
2023-05-06T19:21:04.839Z,18.42
2023-05-06T19:23:32.813Z,17.50
2023-05-06T19:25:59.481Z,11.40
2023-05-06T19:28:26.085Z,9.55
2023-05-06T19:30:52.851Z,13.68
2023-05-06T19:33:19.559Z,11.13
2023-05-06T19:35:46.322Z,11.18
2023-05-06T19:38:12.900Z,8.93
2023-05-06T19:40:39.516Z,9.43
2023-05-06T19:43:06.064Z,8.00
2023-05-06T19:45:33.817Z,7.72
2023-05-06T19:48:01.199Z,9.80
2023-05-06T19:50:28.388Z,7.10
2023-05-06T19:52:55.019Z,9.43
2023-05-06T19:55:22.110Z,10.00
2023-05-06T19:57:50.184Z,8.35
2023-05-06T20:00:19.949Z,9.48
2023-05-06T20:02:46.653Z,10.37
2023-05-06T20:05:13.673Z,9.70
2023-05-06T20:07:41.203Z,12.05
2023-05-06T20:10:09.924Z,9.73
2023-05-06T20:12:36.503Z,12.35
2023-05-06T20:15:06.951Z,11.88
2023-05-06T20:17:34.561Z,11.52
2023-05-06T20:20:04.237Z,12.27
2023-05-06T20:22:32.332Z,17.00
2023-05-06T20:25:17.356Z,85.50
2023-05-06T20:27:45.100Z,80.18
2023-05-06T20:30:12.325Z,24.55
2023-05-06T20:32:40.387Z,30.08
2023-05-06T20:35:07.854Z,18.15
2023-05-06T20:37:35.365Z,8.85
2023-05-06T20:40:04.496Z,10.65
2023-05-06T20:42:31.364Z,9.60
2023-05-06T20:44:58.050Z,8.38
2023-05-06T20:47:24.657Z,9.57
2023-05-06T20:49:51.394Z,8.00
2023-05-06T20:52:18.300Z,8.40
2023-05-06T20:54:45.455Z,7.82
2023-05-06T20:57:14.603Z,9.23
2023-05-06T20:59:41.730Z,8.50
2023-05-06T21:02:09.043Z,6.70
2023-05-06T21:04:35.858Z,6.07
2023-05-06T21:07:02.935Z,6.40
2023-05-06T21:09:29.590Z,8.15
2023-05-06T21:11:56.603Z,6.45
2023-05-06T21:14:24.788Z,7.40
2023-05-06T21:16:52.198Z,8.05
2023-05-06T21:19:19.114Z,9.02
2023-05-06T21:21:45.771Z,7.75
2023-05-06T21:24:12.920Z,8.32
2023-05-06T21:26:40.004Z,7.88
2023-05-06T21:29:06.607Z,8.00
2023-05-06T21:31:33.359Z,9.07
2023-05-06T21:34:00.279Z,9.75
2023-05-06T21:36:27.129Z,9.32
2023-05-06T21:39:05.851Z,8.43
2023-05-06T21:41:35.315Z,10.05
2023-05-06T21:44:06.197Z,8.38
2023-05-06T21:46:34.325Z,7.38
2023-05-06T21:49:01.300Z,7.65
2023-05-06T21:51:29.934Z,7.72
2023-05-06T21:53:56.525Z,7.35
2023-05-06T21:56:23.213Z,6.57
2023-05-06T21:58:51.094Z,7.90
2023-05-06T22:01:18.077Z,8.88
2023-05-06T22:03:45.953Z,8.48
2023-05-06T22:06:12.779Z,8.95
2023-05-06T22:08:40.920Z,8.65
2023-05-06T22:11:07.667Z,8.10
2023-05-06T22:13:34.380Z,8.13
2023-05-06T22:16:01.142Z,9.30
2023-05-06T22:18:29.894Z,7.90
2023-05-06T22:20:57.822Z,9.75
2023-05-06T22:23:25.117Z,10.00
2023-05-06T22:25:52.165Z,9.63
2023-05-06T22:28:19.764Z,9.43
2023-05-06T22:30:46.501Z,11.52
2023-05-06T22:33:13.242Z,9.43
2023-05-06T22:35:40.007Z,11.52
2023-05-06T22:38:06.716Z,9.45
2023-05-06T22:40:33.307Z,10.85
2023-05-06T22:42:59.941Z,10.63
2023-05-06T22:45:26.593Z,10.63
2023-05-06T22:47:53.411Z,11.75
2023-05-06T22:50:20.090Z,13.65
2023-05-06T22:52:46.687Z,13.13
2023-05-06T22:55:13.494Z,13.02
2023-05-06T22:57:40.314Z,13.98
2023-05-06T23:00:08.618Z,12.68
2023-05-06T23:02:35.331Z,12.00
2023-05-06T23:05:01.983Z,15.07
2023-05-06T23:07:28.618Z,15.23
2023-05-06T23:09:55.299Z,14.02
2023-05-06T23:12:21.838Z,13.25
2023-05-06T23:14:48.392Z,11.00
2023-05-06T23:17:15.054Z,12.88
2023-05-06T23:19:42.450Z,13.05
2023-05-06T23:22:10.263Z,12.55
2023-05-06T23:24:36.870Z,14.82
2023-05-06T23:27:03.484Z,12.50
2023-05-06T23:29:30.179Z,13.23
2023-05-06T23:31:56.765Z,13.15
2023-05-06T23:34:23.484Z,13.82
2023-05-06T23:36:50.589Z,15.18
2023-05-06T23:39:17.556Z,15.55
2023-05-06T23:41:44.297Z,13.50
2023-05-06T23:44:10.897Z,14.82
2023-05-06T23:46:37.546Z,14.88
2023-05-06T23:49:05.335Z,15.48
2023-05-06T23:51:32.591Z,13.30
2023-05-06T23:53:59.180Z,15.93
2023-05-06T23:56:25.756Z,11.52
2023-05-06T23:58:52.365Z,14.65
